sensor_id;sensor_type;location;lat;lon;timestamp;P1;durP1;ratioP1;P2;durP2;ratioP2
9218;SDS011;4644;48.858;9.184;2024-03-06T00:02:21;1.13;;;1.13;;
9218;SDS011;4644;48.858;9.184;2024-03-06T00:04:48;1.27;;;1.17;;
9218;SDS011;4644;48.858;9.184;2024-03-06T00:07:15;1.60;;;1.20;;
9218;SDS011;4644;48.858;9.184;2024-03-06T00:09:43;2.23;;;1.67;;
9218;SDS011;4644;48.858;9.184;2024-03-06T00:12:10;1.57;;;1.47;;
9218;SDS011;4644;48.858;9.184;2024-03-06T00:14:37;1.63;;;1.30;;
9218;SDS011;4644;48.858;9.184;2024-03-06T00:17:04;1.40;;;1.30;;
9218;SDS011;4644;48.858;9.184;2024-03-06T00:19:33;1.27;;;1.17;;
9218;SDS011;4644;48.858;9.184;2024-03-06T00:22:00;1.10;;;1.10;;
9218;SDS011;4644;48.858;9.184;2024-03-06T00:24:27;1.20;;;1.17;;
9218;SDS011;4644;48.858;9.184;2024-03-06T00:26:55;1.40;;;1.30;;
9218;SDS011;4644;48.858;9.184;2024-03-06T00:29:22;1.00;;;1.00;;
9218;SDS011;4644;48.858;9.184;2024-03-06T00:31:49;1.20;;;1.20;;
9218;SDS011;4644;48.858;9.184;2024-03-06T00:34:17;1.27;;;1.17;;
9218;SDS011;4644;48.858;9.184;2024-03-06T00:36:45;1.30;;;1.10;;
9218;SDS011;4644;48.858;9.184;2024-03-06T00:39:13;2.80;;;2.17;;
9218;SDS011;4644;48.858;9.184;2024-03-06T00:41:40;1.17;;;1.10;;
9218;SDS011;4644;48.858;9.184;2024-03-06T00:44:07;2.10;;;1.23;;
9218;SDS011;4644;48.858;9.184;2024-03-06T00:46:35;1.47;;;1.37;;
9218;SDS011;4644;48.858;9.184;2024-03-06T00:49:02;1.03;;;1.03;;
9218;SDS011;4644;48.858;9.184;2024-03-06T00:51:29;1.27;;;1.17;;
9218;SDS011;4644;48.858;9.184;2024-03-06T00:54:02;1.10;;;1.10;;
9218;SDS011;4644;48.858;9.184;2024-03-06T00:56:29;1.00;;;1.00;;
9218;SDS011;4644;48.858;9.184;2024-03-06T00:58:57;1.90;;;1.33;;
9218;SDS011;4644;48.858;9.184;2024-03-06T01:01:24;1.03;;;1.03;;
9218;SDS011;4644;48.858;9.184;2024-03-06T01:03:52;3.20;;;1.20;;
9218;SDS011;4644;48.858;9.184;2024-03-06T01:06:20;2.47;;;1.47;;
9218;SDS011;4644;48.858;9.184;2024-03-06T01:08:47;1.33;;;1.23;;
9218;SDS011;4644;48.858;9.184;2024-03-06T01:11:16;1.00;;;1.00;;
9218;SDS011;4644;48.858;9.184;2024-03-06T01:13:43;1.40;;;1.30;;
9218;SDS011;4644;48.858;9.184;2024-03-06T01:16:10;1.10;;;1.10;;
9218;SDS011;4644;48.858;9.184;2024-03-06T01:18:37;1.63;;;1.50;;
9218;SDS011;4644;48.858;9.184;2024-03-06T01:21:04;1.30;;;1.20;;
9218;SDS011;4644;48.858;9.184;2024-03-06T01:23:31;1.17;;;1.17;;
9218;SDS011;4644;48.858;9.184;2024-03-06T01:25:58;1.23;;;1.23;;
9218;SDS011;4644;48.858;9.184;2024-03-06T01:28:27;1.20;;;1.20;;
9218;SDS011;4644;48.858;9.184;2024-03-06T01:30:55;1.60;;;1.50;;
9218;SDS011;4644;48.858;9.184;2024-03-06T01:33:23;1.30;;;1.20;;
9218;SDS011;4644;48.858;9.184;2024-03-06T01:35:51;0.90;;;0.90;;
9218;SDS011;4644;48.858;9.184;2024-03-06T01:38:18;1.00;;;1.00;;
9218;SDS011;4644;48.858;9.184;2024-03-06T01:40:45;1.00;;;0.97;;
9218;SDS011;4644;48.858;9.184;2024-03-06T01:43:21;1.27;;;1.17;;
9218;SDS011;4644;48.858;9.184;2024-03-06T01:45:50;1.40;;;1.30;;
9218;SDS011;4644;48.858;9.184;2024-03-06T01:48:19;1.20;;;1.10;;
9218;SDS011;4644;48.858;9.184;2024-03-06T01:50:49;1.00;;;1.00;;
9218;SDS011;4644;48.858;9.184;2024-03-06T01:53:17;1.33;;;1.27;;
9218;SDS011;4644;48.858;9.184;2024-03-06T01:55:44;1.20;;;1.10;;
9218;SDS011;4644;48.858;9.184;2024-03-06T01:58:13;2.17;;;1.20;;
9218;SDS011;4644;48.858;9.184;2024-03-06T02:00:41;0.80;;;0.80;;
9218;SDS011;4644;48.858;9.184;2024-03-06T02:03:10;0.90;;;0.90;;
9218;SDS011;4644;48.858;9.184;2024-03-06T02:05:38;1.10;;;1.00;;
9218;SDS011;4644;48.858;9.184;2024-03-06T02:08:05;1.53;;;1.43;;
9218;SDS011;4644;48.858;9.184;2024-03-06T02:10:34;1.30;;;1.20;;
9218;SDS011;4644;48.858;9.184;2024-03-06T02:13:03;1.17;;;1.07;;
9218;SDS011;4644;48.858;9.184;2024-03-06T02:15:31;1.00;;;1.00;;
9218;SDS011;4644;48.858;9.184;2024-03-06T02:17:58;0.93;;;0.93;;
9218;SDS011;4644;48.858;9.184;2024-03-06T02:20:32;1.60;;;1.50;;
9218;SDS011;4644;48.858;9.184;2024-03-06T02:22:59;1.23;;;1.23;;
9218;SDS011;4644;48.858;9.184;2024-03-06T02:25:26;1.33;;;1.20;;
9218;SDS011;4644;48.858;9.184;2024-03-06T02:27:53;1.10;;;1.10;;
9218;SDS011;4644;48.858;9.184;2024-03-06T02:30:20;1.27;;;1.17;;
9218;SDS011;4644;48.858;9.184;2024-03-06T02:32:48;2.73;;;1.10;;
9218;SDS011;4644;48.858;9.184;2024-03-06T02:35:17;1.33;;;1.10;;
9218;SDS011;4644;48.858;9.184;2024-03-06T02:37:45;1.10;;;1.10;;
9218;SDS011;4644;48.858;9.184;2024-03-06T02:40:12;1.10;;;1.00;;
9218;SDS011;4644;48.858;9.184;2024-03-06T02:42:40;1.20;;;1.20;;
9218;SDS011;4644;48.858;9.184;2024-03-06T02:45:07;1.23;;;1.20;;
9218;SDS011;4644;48.858;9.184;2024-03-06T02:47:35;0.93;;;0.93;;
9218;SDS011;4644;48.858;9.184;2024-03-06T02:50:02;1.10;;;1.10;;
9218;SDS011;4644;48.858;9.184;2024-03-06T02:52:30;0.80;;;0.80;;
9218;SDS011;4644;48.858;9.184;2024-03-06T02:54:58;1.13;;;1.13;;
9218;SDS011;4644;48.858;9.184;2024-03-06T02:57:26;1.63;;;1.53;;
9218;SDS011;4644;48.858;9.184;2024-03-06T02:59:54;1.47;;;1.00;;
9218;SDS011;4644;48.858;9.184;2024-03-06T03:02:22;1.43;;;1.43;;
9218;SDS011;4644;48.858;9.184;2024-03-06T03:04:50;1.20;;;1.20;;
9218;SDS011;4644;48.858;9.184;2024-03-06T03:07:18;1.67;;;1.33;;
9218;SDS011;4644;48.858;9.184;2024-03-06T03:09:46;3.97;;;1.20;;
9218;SDS011;4644;48.858;9.184;2024-03-06T03:12:14;1.37;;;0.90;;
9218;SDS011;4644;48.858;9.184;2024-03-06T03:14:42;1.10;;;1.10;;
9218;SDS011;4644;48.858;9.184;2024-03-06T03:17:09;1.30;;;1.20;;
9218;SDS011;4644;48.858;9.184;2024-03-06T03:22:18;1.03;;;1.03;;
9218;SDS011;4644;48.858;9.184;2024-03-06T03:24:45;0.87;;;0.87;;
9218;SDS011;4644;48.858;9.184;2024-03-06T03:27:12;1.03;;;1.03;;
9218;SDS011;4644;48.858;9.184;2024-03-06T03:29:41;1.40;;;1.30;;
9218;SDS011;4644;48.858;9.184;2024-03-06T03:32:08;0.90;;;0.90;;
9218;SDS011;4644;48.858;9.184;2024-03-06T03:34:38;1.17;;;1.07;;
9218;SDS011;4644;48.858;9.184;2024-03-06T03:37:05;1.00;;;1.00;;
9218;SDS011;4644;48.858;9.184;2024-03-06T03:39:34;1.10;;;1.10;;
9218;SDS011;4644;48.858;9.184;2024-03-06T03:42:01;0.83;;;0.83;;
9218;SDS011;4644;48.858;9.184;2024-03-06T03:44:29;1.07;;;1.07;;
9218;SDS011;4644;48.858;9.184;2024-03-06T03:46:56;1.50;;;1.40;;
9218;SDS011;4644;48.858;9.184;2024-03-06T03:49:24;1.00;;;1.00;;
9218;SDS011;4644;48.858;9.184;2024-03-06T03:51:51;1.17;;;1.07;;
9218;SDS011;4644;48.858;9.184;2024-03-06T03:54:18;1.50;;;1.40;;
9218;SDS011;4644;48.858;9.184;2024-03-06T03:56:45;1.20;;;1.20;;
9218;SDS011;4644;48.858;9.184;2024-03-06T03:59:13;1.37;;;1.27;;
9218;SDS011;4644;48.858;9.184;2024-03-06T04:01:41;0.97;;;0.97;;
9218;SDS011;4644;48.858;9.184;2024-03-06T04:04:11;0.90;;;0.90;;
9218;SDS011;4644;48.858;9.184;2024-03-06T04:06:38;1.03;;;1.00;;
9218;SDS011;4644;48.858;9.184;2024-03-06T04:09:05;1.50;;;0.97;;
9218;SDS011;4644;48.858;9.184;2024-03-06T04:11:35;1.50;;;1.40;;
9218;SDS011;4644;48.858;9.184;2024-03-06T04:14:02;1.10;;;1.10;;
9218;SDS011;4644;48.858;9.184;2024-03-06T04:16:33;1.37;;;1.27;;
9218;SDS011;4644;48.858;9.184;2024-03-06T04:19:02;1.07;;;1.07;;
9218;SDS011;4644;48.858;9.184;2024-03-06T04:21:29;1.00;;;1.00;;
9218;SDS011;4644;48.858;9.184;2024-03-06T04:23:57;1.10;;;1.10;;
9218;SDS011;4644;48.858;9.184;2024-03-06T04:26:37;1.40;;;1.30;;
9218;SDS011;4644;48.858;9.184;2024-03-06T04:29:05;1.33;;;0.97;;
9218;SDS011;4644;48.858;9.184;2024-03-06T04:31:32;1.20;;;1.10;;
9218;SDS011;4644;48.858;9.184;2024-03-06T04:33:59;1.00;;;1.00;;
9218;SDS011;4644;48.858;9.184;2024-03-06T04:36:27;1.20;;;1.17;;
9218;SDS011;4644;48.858;9.184;2024-03-06T04:38:54;1.40;;;1.30;;
9218;SDS011;4644;48.858;9.184;2024-03-06T04:41:22;1.00;;;1.00;;
9218;SDS011;4644;48.858;9.184;2024-03-06T04:43:49;1.33;;;1.10;;
9218;SDS011;4644;48.858;9.184;2024-03-06T04:46:17;1.63;;;1.47;;
9218;SDS011;4644;48.858;9.184;2024-03-06T04:48:45;1.00;;;1.00;;
9218;SDS011;4644;48.858;9.184;2024-03-06T04:51:12;1.23;;;1.10;;
9218;SDS011;4644;48.858;9.184;2024-03-06T04:53:40;3.80;;;1.30;;
9218;SDS011;4644;48.858;9.184;2024-03-06T04:56:08;1.23;;;1.17;;
9218;SDS011;4644;48.858;9.184;2024-03-06T04:58:35;1.23;;;1.10;;
9218;SDS011;4644;48.858;9.184;2024-03-06T05:01:03;2.20;;;1.43;;
9218;SDS011;4644;48.858;9.184;2024-03-06T05:03:30;3.17;;;1.50;;
9218;SDS011;4644;48.858;9.184;2024-03-06T05:05:57;1.80;;;1.47;;
9218;SDS011;4644;48.858;9.184;2024-03-06T05:08:24;1.50;;;1.30;;
9218;SDS011;4644;48.858;9.184;2024-03-06T05:10:53;1.33;;;1.30;;
9218;SDS011;4644;48.858;9.184;2024-03-06T05:13:20;2.97;;;1.13;;
9218;SDS011;4644;48.858;9.184;2024-03-06T05:15:47;1.40;;;1.30;;
9218;SDS011;4644;48.858;9.184;2024-03-06T05:18:14;0.90;;;0.90;;
9218;SDS011;4644;48.858;9.184;2024-03-06T05:20:42;1.50;;;1.40;;
9218;SDS011;4644;48.858;9.184;2024-03-06T05:23:09;1.17;;;1.13;;
9218;SDS011;4644;48.858;9.184;2024-03-06T05:25:37;1.20;;;1.17;;
9218;SDS011;4644;48.858;9.184;2024-03-06T05:28:06;2.47;;;1.10;;
9218;SDS011;4644;48.858;9.184;2024-03-06T05:30:33;1.50;;;1.40;;
9218;SDS011;4644;48.858;9.184;2024-03-06T05:33:00;1.47;;;1.37;;
9218;SDS011;4644;48.858;9.184;2024-03-06T05:35:27;1.50;;;1.27;;
9218;SDS011;4644;48.858;9.184;2024-03-06T05:37:54;1.37;;;1.23;;
9218;SDS011;4644;48.858;9.184;2024-03-06T05:40:22;1.23;;;1.13;;
9218;SDS011;4644;48.858;9.184;2024-03-06T05:42:49;1.73;;;1.63;;
9218;SDS011;4644;48.858;9.184;2024-03-06T05:45:17;1.43;;;1.27;;
9218;SDS011;4644;48.858;9.184;2024-03-06T05:47:45;4.03;;;1.47;;
9218;SDS011;4644;48.858;9.184;2024-03-06T05:50:13;3.50;;;1.40;;
9218;SDS011;4644;48.858;9.184;2024-03-06T05:52:40;1.30;;;1.20;;
9218;SDS011;4644;48.858;9.184;2024-03-06T05:55:08;1.00;;;1.00;;
9218;SDS011;4644;48.858;9.184;2024-03-06T05:57:35;1.93;;;1.40;;
9218;SDS011;4644;48.858;9.184;2024-03-06T06:00:03;1.67;;;1.57;;
9218;SDS011;4644;48.858;9.184;2024-03-06T06:02:37;1.30;;;1.20;;
9218;SDS011;4644;48.858;9.184;2024-03-06T06:05:05;1.30;;;1.20;;
9218;SDS011;4644;48.858;9.184;2024-03-06T06:07:33;1.77;;;1.10;;
9218;SDS011;4644;48.858;9.184;2024-03-06T06:10:00;2.13;;;1.40;;
9218;SDS011;4644;48.858;9.184;2024-03-06T06:12:28;2.20;;;1.30;;
9218;SDS011;4644;48.858;9.184;2024-03-06T06:14:55;1.47;;;1.37;;
9218;SDS011;4644;48.858;9.184;2024-03-06T06:17:22;1.93;;;1.53;;
9218;SDS011;4644;48.858;9.184;2024-03-06T06:19:51;1.40;;;1.40;;
9218;SDS011;4644;48.858;9.184;2024-03-06T06:22:18;1.77;;;1.67;;
9218;SDS011;4644;48.858;9.184;2024-03-06T06:24:45;1.43;;;1.07;;
9218;SDS011;4644;48.858;9.184;2024-03-06T06:27:13;1.37;;;1.27;;
9218;SDS011;4644;48.858;9.184;2024-03-06T06:29:41;1.70;;;1.60;;
9218;SDS011;4644;48.858;9.184;2024-03-06T06:32:08;1.47;;;1.37;;
9218;SDS011;4644;48.858;9.184;2024-03-06T06:34:35;2.03;;;1.40;;
9218;SDS011;4644;48.858;9.184;2024-03-06T06:37:03;1.97;;;1.40;;
9218;SDS011;4644;48.858;9.184;2024-03-06T06:39:31;1.50;;;1.40;;
9218;SDS011;4644;48.858;9.184;2024-03-06T06:41:59;1.33;;;1.30;;
9218;SDS011;4644;48.858;9.184;2024-03-06T06:44:28;2.23;;;1.53;;
9218;SDS011;4644;48.858;9.184;2024-03-06T06:46:55;1.30;;;1.30;;
9218;SDS011;4644;48.858;9.184;2024-03-06T06:49:22;1.33;;;1.23;;
9218;SDS011;4644;48.858;9.184;2024-03-06T06:51:49;1.00;;;1.00;;
9218;SDS011;4644;48.858;9.184;2024-03-06T06:54:19;3.03;;;1.53;;
9218;SDS011;4644;48.858;9.184;2024-03-06T06:56:46;1.30;;;1.20;;
9218;SDS011;4644;48.858;9.184;2024-03-06T06:59:14;1.70;;;1.60;;
9218;SDS011;4644;48.858;9.184;2024-03-06T07:01:42;1.37;;;1.33;;
9218;SDS011;4644;48.858;9.184;2024-03-06T07:04:09;2.23;;;1.70;;
9218;SDS011;4644;48.858;9.184;2024-03-06T07:06:36;1.40;;;1.30;;
9218;SDS011;4644;48.858;9.184;2024-03-06T07:09:03;1.40;;;1.30;;
9218;SDS011;4644;48.858;9.184;2024-03-06T07:11:35;1.30;;;1.20;;
9218;SDS011;4644;48.858;9.184;2024-03-06T07:14:02;1.63;;;1.30;;
9218;SDS011;4644;48.858;9.184;2024-03-06T07:16:30;1.73;;;1.63;;
9218;SDS011;4644;48.858;9.184;2024-03-06T07:18:57;1.00;;;1.00;;
9218;SDS011;4644;48.858;9.184;2024-03-06T07:21:38;1.00;;;1.00;;
9218;SDS011;4644;48.858;9.184;2024-03-06T07:24:05;1.47;;;1.37;;
9218;SDS011;4644;48.858;9.184;2024-03-06T07:26:33;3.43;;;1.60;;
9218;SDS011;4644;48.858;9.184;2024-03-06T07:29:01;1.90;;;1.80;;
9218;SDS011;4644;48.858;9.184;2024-03-06T07:31:29;1.30;;;1.20;;
9218;SDS011;4644;48.858;9.184;2024-03-06T07:33:57;1.13;;;1.10;;
9218;SDS011;4644;48.858;9.184;2024-03-06T07:36:24;1.70;;;1.60;;
9218;SDS011;4644;48.858;9.184;2024-03-06T07:38:51;1.13;;;1.13;;
9218;SDS011;4644;48.858;9.184;2024-03-06T07:41:20;4.80;;;1.40;;
9218;SDS011;4644;48.858;9.184;2024-03-06T07:43:47;1.50;;;1.40;;
9218;SDS011;4644;48.858;9.184;2024-03-06T07:46:15;1.00;;;1.00;;
9218;SDS011;4644;48.858;9.184;2024-03-06T07:48:42;1.53;;;1.43;;
9218;SDS011;4644;48.858;9.184;2024-03-06T07:51:10;1.60;;;1.50;;
9218;SDS011;4644;48.858;9.184;2024-03-06T07:53:37;1.20;;;1.10;;
9218;SDS011;4644;48.858;9.184;2024-03-06T07:56:04;1.57;;;1.43;;
9218;SDS011;4644;48.858;9.184;2024-03-06T07:58:32;2.30;;;1.43;;
9218;SDS011;4644;48.858;9.184;2024-03-06T08:00:59;1.57;;;1.47;;
9218;SDS011;4644;48.858;9.184;2024-03-06T08:03:28;1.63;;;1.53;;
9218;SDS011;4644;48.858;9.184;2024-03-06T08:05:55;1.80;;;1.70;;
9218;SDS011;4644;48.858;9.184;2024-03-06T08:08:22;1.60;;;1.50;;
9218;SDS011;4644;48.858;9.184;2024-03-06T08:10:49;1.30;;;1.30;;
9218;SDS011;4644;48.858;9.184;2024-03-06T08:13:16;1.37;;;1.27;;
9218;SDS011;4644;48.858;9.184;2024-03-06T08:15:44;1.10;;;1.10;;
9218;SDS011;4644;48.858;9.184;2024-03-06T08:18:11;1.50;;;1.40;;
9218;SDS011;4644;48.858;9.184;2024-03-06T08:20:41;1.53;;;1.43;;
9218;SDS011;4644;48.858;9.184;2024-03-06T08:23:08;1.63;;;1.53;;
9218;SDS011;4644;48.858;9.184;2024-03-06T08:25:36;2.07;;;1.67;;
9218;SDS011;4644;48.858;9.184;2024-03-06T08:28:03;1.70;;;1.47;;
9218;SDS011;4644;48.858;9.184;2024-03-06T08:30:31;3.33;;;1.83;;
9218;SDS011;4644;48.858;9.184;2024-03-06T08:32:58;2.60;;;1.27;;
9218;SDS011;4644;48.858;9.184;2024-03-06T08:35:26;1.83;;;1.70;;
9218;SDS011;4644;48.858;9.184;2024-03-06T08:37:54;2.40;;;1.13;;
9218;SDS011;4644;48.858;9.184;2024-03-06T08:40:21;1.77;;;1.67;;
9218;SDS011;4644;48.858;9.184;2024-03-06T08:42:51;1.87;;;1.63;;
9218;SDS011;4644;48.858;9.184;2024-03-06T08:45:18;1.50;;;1.40;;
9218;SDS011;4644;48.858;9.184;2024-03-06T08:47:45;1.80;;;1.70;;
9218;SDS011;4644;48.858;9.184;2024-03-06T08:50:13;1.67;;;1.57;;
9218;SDS011;4644;48.858;9.184;2024-03-06T08:52:41;1.97;;;1.73;;
9218;SDS011;4644;48.858;9.184;2024-03-06T08:55:10;2.57;;;2.00;;
9218;SDS011;4644;48.858;9.184;2024-03-06T08:57:37;2.03;;;1.80;;
9218;SDS011;4644;48.858;9.184;2024-03-06T09:00:06;1.77;;;1.67;;
9218;SDS011;4644;48.858;9.184;2024-03-06T09:02:35;2.27;;;1.80;;
9218;SDS011;4644;48.858;9.184;2024-03-06T09:05:03;2.63;;;2.33;;
9218;SDS011;4644;48.858;9.184;2024-03-06T09:07:31;1.33;;;1.23;;
9218;SDS011;4644;48.858;9.184;2024-03-06T09:10:02;1.97;;;1.87;;
9218;SDS011;4644;48.858;9.184;2024-03-06T09:12:32;1.90;;;1.77;;
9218;SDS011;4644;48.858;9.184;2024-03-06T09:15:00;3.37;;;1.87;;
9218;SDS011;4644;48.858;9.184;2024-03-06T09:17:27;1.60;;;1.50;;
9218;SDS011;4644;48.858;9.184;2024-03-06T09:19:55;3.23;;;2.17;;
9218;SDS011;4644;48.858;9.184;2024-03-06T09:22:22;2.37;;;2.10;;
9218;SDS011;4644;48.858;9.184;2024-03-06T09:24:49;2.40;;;1.93;;
9218;SDS011;4644;48.858;9.184;2024-03-06T09:27:16;1.87;;;1.77;;
9218;SDS011;4644;48.858;9.184;2024-03-06T09:29:45;1.53;;;1.33;;
9218;SDS011;4644;48.858;9.184;2024-03-06T09:32:12;2.00;;;1.80;;
9218;SDS011;4644;48.858;9.184;2024-03-06T09:34:40;3.07;;;2.13;;
9218;SDS011;4644;48.858;9.184;2024-03-06T09:37:09;2.07;;;1.90;;
9218;SDS011;4644;48.858;9.184;2024-03-06T09:39:36;2.30;;;2.07;;
9218;SDS011;4644;48.858;9.184;2024-03-06T09:42:21;2.27;;;2.07;;
9218;SDS011;4644;48.858;9.184;2024-03-06T09:44:50;4.10;;;1.67;;
9218;SDS011;4644;48.858;9.184;2024-03-06T09:47:18;2.53;;;2.10;;
9218;SDS011;4644;48.858;9.184;2024-03-06T09:49:50;3.53;;;2.73;;
9218;SDS011;4644;48.858;9.184;2024-03-06T09:52:19;2.63;;;2.43;;
9218;SDS011;4644;48.858;9.184;2024-03-06T09:54:47;3.00;;;2.70;;
9218;SDS011;4644;48.858;9.184;2024-03-06T09:57:17;3.20;;;2.53;;
9218;SDS011;4644;48.858;9.184;2024-03-06T09:59:44;2.77;;;2.50;;
9218;SDS011;4644;48.858;9.184;2024-03-06T10:02:24;3.27;;;2.37;;
9218;SDS011;4644;48.858;9.184;2024-03-06T10:04:57;3.27;;;2.63;;
9218;SDS011;4644;48.858;9.184;2024-03-06T10:07:24;3.33;;;3.03;;
9218;SDS011;4644;48.858;9.184;2024-03-06T10:09:53;2.57;;;2.37;;
9218;SDS011;4644;48.858;9.184;2024-03-06T10:12:20;5.03;;;2.80;;
9218;SDS011;4644;48.858;9.184;2024-03-06T10:14:51;3.70;;;3.23;;
9218;SDS011;4644;48.858;9.184;2024-03-06T10:17:21;5.10;;;2.73;;
9218;SDS011;4644;48.858;9.184;2024-03-06T10:19:48;2.37;;;2.20;;
9218;SDS011;4644;48.858;9.184;2024-03-06T10:22:17;3.77;;;2.93;;
9218;SDS011;4644;48.858;9.184;2024-03-06T10:24:45;3.90;;;2.87;;
9218;SDS011;4644;48.858;9.184;2024-03-06T10:30:03;3.73;;;3.00;;
9218;SDS011;4644;48.858;9.184;2024-03-06T10:32:38;4.57;;;3.47;;
9218;SDS011;4644;48.858;9.184;2024-03-06T10:35:06;4.90;;;3.17;;
9218;SDS011;4644;48.858;9.184;2024-03-06T10:37:37;5.50;;;3.50;;
9218;SDS011;4644;48.858;9.184;2024-03-06T10:40:06;6.17;;;4.20;;
9218;SDS011;4644;48.858;9.184;2024-03-06T10:42:38;6.53;;;3.70;;
9218;SDS011;4644;48.858;9.184;2024-03-06T10:45:07;3.97;;;3.57;;
9218;SDS011;4644;48.858;9.184;2024-03-06T10:47:41;5.40;;;3.60;;
9218;SDS011;4644;48.858;9.184;2024-03-06T10:50:13;5.23;;;3.87;;
9218;SDS011;4644;48.858;9.184;2024-03-06T10:52:41;4.40;;;3.63;;
9218;SDS011;4644;48.858;9.184;2024-03-06T10:55:12;5.43;;;4.10;;
9218;SDS011;4644;48.858;9.184;2024-03-06T10:57:39;6.20;;;4.27;;
9218;SDS011;4644;48.858;9.184;2024-03-06T11:00:08;4.70;;;3.87;;
9218;SDS011;4644;48.858;9.184;2024-03-06T11:02:43;5.70;;;4.50;;
9218;SDS011;4644;48.858;9.184;2024-03-06T11:05:25;5.17;;;4.03;;
9218;SDS011;4644;48.858;9.184;2024-03-06T11:07:53;7.40;;;4.73;;
9218;SDS011;4644;48.858;9.184;2024-03-06T11:10:30;5.37;;;3.83;;
9218;SDS011;4644;48.858;9.184;2024-03-06T11:12:58;3.97;;;3.67;;
9218;SDS011;4644;48.858;9.184;2024-03-06T11:15:26;5.37;;;4.03;;
9218;SDS011;4644;48.858;9.184;2024-03-06T11:17:55;6.17;;;4.67;;
9218;SDS011;4644;48.858;9.184;2024-03-06T11:20:22;6.80;;;3.80;;
9218;SDS011;4644;48.858;9.184;2024-03-06T11:26:01;6.73;;;4.53;;
9218;SDS011;4644;48.858;9.184;2024-03-06T11:28:30;7.03;;;4.17;;
9218;SDS011;4644;48.858;9.184;2024-03-06T11:30:59;5.13;;;3.63;;
9218;SDS011;4644;48.858;9.184;2024-03-06T11:33:39;9.10;;;5.00;;
9218;SDS011;4644;48.858;9.184;2024-03-06T11:36:14;6.13;;;3.40;;
9218;SDS011;4644;48.858;9.184;2024-03-06T11:41:27;4.70;;;3.47;;
9218;SDS011;4644;48.858;9.184;2024-03-06T11:43:55;11.77;;;4.87;;
9218;SDS011;4644;48.858;9.184;2024-03-06T11:46:26;8.07;;;4.07;;
9218;SDS011;4644;48.858;9.184;2024-03-06T11:51:54;4.00;;;3.47;;
9218;SDS011;4644;48.858;9.184;2024-03-06T11:57:04;5.10;;;3.70;;
9218;SDS011;4644;48.858;9.184;2024-03-06T11:59:33;5.13;;;4.03;;
9218;SDS011;4644;48.858;9.184;2024-03-06T12:02:04;8.13;;;4.37;;
9218;SDS011;4644;48.858;9.184;2024-03-06T12:04:33;5.67;;;3.33;;
9218;SDS011;4644;48.858;9.184;2024-03-06T12:07:02;5.33;;;3.50;;
9218;SDS011;4644;48.858;9.184;2024-03-06T12:09:31;6.70;;;4.53;;
9218;SDS011;4644;48.858;9.184;2024-03-06T12:11:59;6.03;;;4.13;;
9218;SDS011;4644;48.858;9.184;2024-03-06T12:14:27;6.97;;;4.87;;
9218;SDS011;4644;48.858;9.184;2024-03-06T12:16:54;4.37;;;3.73;;
9218;SDS011;4644;48.858;9.184;2024-03-06T12:19:23;6.50;;;4.30;;
9218;SDS011;4644;48.858;9.184;2024-03-06T12:21:54;7.20;;;5.07;;
9218;SDS011;4644;48.858;9.184;2024-03-06T12:24:22;5.23;;;3.90;;
9218;SDS011;4644;48.858;9.184;2024-03-06T12:29:34;6.00;;;4.47;;
9218;SDS011;4644;48.858;9.184;2024-03-06T12:32:02;5.87;;;4.20;;
9218;SDS011;4644;48.858;9.184;2024-03-06T12:34:30;5.73;;;4.20;;
9218;SDS011;4644;48.858;9.184;2024-03-06T12:37:12;6.30;;;4.47;;
9218;SDS011;4644;48.858;9.184;2024-03-06T12:39:39;9.03;;;4.60;;
9218;SDS011;4644;48.858;9.184;2024-03-06T12:42:07;7.07;;;4.30;;
9218;SDS011;4644;48.858;9.184;2024-03-06T12:44:34;6.40;;;4.60;;
9218;SDS011;4644;48.858;9.184;2024-03-06T12:47:01;7.20;;;4.83;;
9218;SDS011;4644;48.858;9.184;2024-03-06T12:49:28;6.90;;;4.30;;
9218;SDS011;4644;48.858;9.184;2024-03-06T12:51:55;8.23;;;4.80;;
9218;SDS011;4644;48.858;9.184;2024-03-06T12:54:24;9.70;;;4.97;;
9218;SDS011;4644;48.858;9.184;2024-03-06T12:56:51;7.20;;;4.20;;
9218;SDS011;4644;48.858;9.184;2024-03-06T12:59:22;10.60;;;4.93;;
9218;SDS011;4644;48.858;9.184;2024-03-06T13:01:49;7.30;;;4.97;;
9218;SDS011;4644;48.858;9.184;2024-03-06T13:04:16;7.60;;;4.53;;
9218;SDS011;4644;48.858;9.184;2024-03-06T13:06:44;6.40;;;5.03;;
9218;SDS011;4644;48.858;9.184;2024-03-06T13:09:11;6.73;;;4.43;;
9218;SDS011;4644;48.858;9.184;2024-03-06T13:11:40;7.30;;;4.63;;
9218;SDS011;4644;48.858;9.184;2024-03-06T13:14:08;6.60;;;5.13;;
9218;SDS011;4644;48.858;9.184;2024-03-06T13:16:36;6.23;;;4.97;;
9218;SDS011;4644;48.858;9.184;2024-03-06T13:19:04;6.23;;;4.00;;
9218;SDS011;4644;48.858;9.184;2024-03-06T13:21:31;5.77;;;3.53;;
9218;SDS011;4644;48.858;9.184;2024-03-06T13:23:58;8.37;;;5.27;;
9218;SDS011;4644;48.858;9.184;2024-03-06T13:26:28;6.20;;;4.27;;
9218;SDS011;4644;48.858;9.184;2024-03-06T13:28:56;10.27;;;5.63;;
9218;SDS011;4644;48.858;9.184;2024-03-06T13:31:24;7.37;;;4.90;;
9218;SDS011;4644;48.858;9.184;2024-03-06T13:33:52;6.07;;;4.63;;
9218;SDS011;4644;48.858;9.184;2024-03-06T13:36:20;5.67;;;4.10;;
9218;SDS011;4644;48.858;9.184;2024-03-06T13:38:47;6.50;;;3.63;;
9218;SDS011;4644;48.858;9.184;2024-03-06T13:41:14;8.30;;;5.13;;
9218;SDS011;4644;48.858;9.184;2024-03-06T13:43:41;5.83;;;4.53;;
9218;SDS011;4644;48.858;9.184;2024-03-06T13:46:10;6.87;;;4.00;;
9218;SDS011;4644;48.858;9.184;2024-03-06T13:48:37;6.67;;;4.67;;
9218;SDS011;4644;48.858;9.184;2024-03-06T13:51:05;8.80;;;4.83;;
9218;SDS011;4644;48.858;9.184;2024-03-06T13:53:32;8.40;;;5.00;;
9218;SDS011;4644;48.858;9.184;2024-03-06T13:56:01;5.83;;;4.37;;
9218;SDS011;4644;48.858;9.184;2024-03-06T13:58:29;7.23;;;4.77;;
9218;SDS011;4644;48.858;9.184;2024-03-06T14:00:56;6.10;;;3.90;;
9218;SDS011;4644;48.858;9.184;2024-03-06T14:03:24;6.97;;;4.40;;
9218;SDS011;4644;48.858;9.184;2024-03-06T14:05:52;6.83;;;5.13;;
9218;SDS011;4644;48.858;9.184;2024-03-06T14:08:22;8.10;;;4.67;;
9218;SDS011;4644;48.858;9.184;2024-03-06T14:10:50;4.17;;;3.73;;
9218;SDS011;4644;48.858;9.184;2024-03-06T14:13:18;7.13;;;5.20;;
9218;SDS011;4644;48.858;9.184;2024-03-06T14:15:45;5.63;;;4.07;;
9218;SDS011;4644;48.858;9.184;2024-03-06T14:18:13;7.23;;;4.40;;
9218;SDS011;4644;48.858;9.184;2024-03-06T14:20:42;6.63;;;4.30;;
9218;SDS011;4644;48.858;9.184;2024-03-06T14:23:09;5.77;;;3.77;;
9218;SDS011;4644;48.858;9.184;2024-03-06T14:25:36;6.60;;;4.07;;
9218;SDS011;4644;48.858;9.184;2024-03-06T14:28:03;4.77;;;4.10;;
9218;SDS011;4644;48.858;9.184;2024-03-06T14:30:30;7.77;;;4.70;;
9218;SDS011;4644;48.858;9.184;2024-03-06T14:32:58;6.43;;;3.80;;
9218;SDS011;4644;48.858;9.184;2024-03-06T14:35:25;6.23;;;4.97;;
9218;SDS011;4644;48.858;9.184;2024-03-06T14:37:53;5.97;;;4.37;;
9218;SDS011;4644;48.858;9.184;2024-03-06T14:40:20;6.13;;;4.17;;
9218;SDS011;4644;48.858;9.184;2024-03-06T14:42:48;8.30;;;4.90;;
9218;SDS011;4644;48.858;9.184;2024-03-06T14:45:15;14.57;;;8.07;;
9218;SDS011;4644;48.858;9.184;2024-03-06T14:47:42;7.40;;;5.17;;
9218;SDS011;4644;48.858;9.184;2024-03-06T14:50:09;7.63;;;5.33;;
9218;SDS011;4644;48.858;9.184;2024-03-06T14:52:37;5.03;;;4.07;;
9218;SDS011;4644;48.858;9.184;2024-03-06T14:55:06;7.17;;;3.63;;
9218;SDS011;4644;48.858;9.184;2024-03-06T14:57:34;5.70;;;3.83;;
9218;SDS011;4644;48.858;9.184;2024-03-06T15:00:02;6.70;;;4.00;;
9218;SDS011;4644;48.858;9.184;2024-03-06T15:02:43;7.13;;;3.83;;
9218;SDS011;4644;48.858;9.184;2024-03-06T15:05:10;5.03;;;4.23;;
9218;SDS011;4644;48.858;9.184;2024-03-06T15:07:51;5.23;;;3.83;;
9218;SDS011;4644;48.858;9.184;2024-03-06T15:10:20;5.97;;;4.80;;
9218;SDS011;4644;48.858;9.184;2024-03-06T15:12:47;6.40;;;3.83;;
9218;SDS011;4644;48.858;9.184;2024-03-06T15:15:14;7.80;;;4.80;;
9218;SDS011;4644;48.858;9.184;2024-03-06T15:17:42;5.60;;;4.43;;
9218;SDS011;4644;48.858;9.184;2024-03-06T15:20:11;6.50;;;4.90;;
9218;SDS011;4644;48.858;9.184;2024-03-06T15:22:38;6.03;;;3.87;;
9218;SDS011;4644;48.858;9.184;2024-03-06T15:25:21;5.73;;;4.03;;
9218;SDS011;4644;48.858;9.184;2024-03-06T15:27:48;8.23;;;5.20;;
9218;SDS011;4644;48.858;9.184;2024-03-06T15:30:16;7.23;;;5.00;;
9218;SDS011;4644;48.858;9.184;2024-03-06T15:32:44;6.63;;;4.57;;
9218;SDS011;4644;48.858;9.184;2024-03-06T15:35:11;6.07;;;4.23;;
9218;SDS011;4644;48.858;9.184;2024-03-06T15:37:38;7.87;;;5.20;;
9218;SDS011;4644;48.858;9.184;2024-03-06T15:40:06;5.47;;;4.60;;
9218;SDS011;4644;48.858;9.184;2024-03-06T15:42:36;7.50;;;5.20;;